SUR4140 SAEZ-SAWC
Flight info
| Callsign | SUR4140 |
|---|---|
| Flight time | N/A |
| Altitude | 36000 |
| Route | GBE UT694 IREMO UP664 CRV UW48 BOKUK |
| Aircraft | B738/M-V/N |
Departure
| Time | N/A |
|---|---|
| Airport | Ezeiza International Airport - Ministro Pistarini (SAEZ) |
Arrival
| Time | 2026-04-18 14:26 |
|---|---|
| Airport | El Calafate - Commander Armando Tola International Airport (SAWC) |
| Time | Latitude | Longitude | Altitude | Speed | Heading |
|---|---|---|---|---|---|
| 2026-04-18 13:26 | -45.15879 | -66.84340 | 36000 ft | 450 kts | 211° |
| 2026-04-18 13:26 | -45.18560 | -66.86616 | 36005 ft | 450 kts | 211° |
| 2026-04-18 13:26 | -45.23925 | -66.91179 | 35999 ft | 450 kts | 211° |
| 2026-04-18 13:27 | -45.29290 | -66.95751 | 35999 ft | 449 kts | 211° |
| 2026-04-18 13:27 | -45.34645 | -67.00325 | 36001 ft | 449 kts | 211° |
| 2026-04-18 13:28 | -45.39883 | -67.04810 | 36002 ft | 449 kts | 211° |
| 2026-04-18 13:28 | -45.45229 | -67.09396 | 36005 ft | 449 kts | 211° |
| 2026-04-18 13:29 | -45.50579 | -67.13996 | 36002 ft | 449 kts | 211° |
| 2026-04-18 13:29 | -45.55920 | -67.18600 | 36002 ft | 449 kts | 211° |
| 2026-04-18 13:30 | -45.61264 | -67.23216 | 36000 ft | 449 kts | 211° |
| 2026-04-18 13:30 | -45.66603 | -67.27839 | 35999 ft | 449 kts | 211° |
| 2026-04-18 13:31 | -45.71949 | -67.32478 | 35999 ft | 449 kts | 211° |
| 2026-04-18 13:31 | -45.77289 | -67.37121 | 36003 ft | 449 kts | 212° |
| 2026-04-18 13:32 | -45.82563 | -67.41942 | 35998 ft | 449 kts | 213° |
| 2026-04-18 13:32 | -45.87772 | -67.46900 | 35999 ft | 450 kts | 214° |
| 2026-04-18 13:33 | -45.92983 | -67.51864 | 36004 ft | 450 kts | 213° |
| 2026-04-18 13:33 | -45.98176 | -67.56790 | 36004 ft | 450 kts | 213° |
| 2026-04-18 13:34 | -46.03401 | -67.61741 | 36001 ft | 450 kts | 213° |
| 2026-04-18 13:34 | -46.08627 | -67.66700 | 36003 ft | 450 kts | 213° |
| 2026-04-18 13:35 | -46.13851 | -67.71670 | 35998 ft | 450 kts | 213° |
| 2026-04-18 13:35 | -46.19074 | -67.76652 | 36001 ft | 450 kts | 213° |
| 2026-04-18 13:36 | -46.24306 | -67.81654 | 36000 ft | 451 kts | 214° |
| 2026-04-18 13:36 | -46.29530 | -67.86660 | 36002 ft | 451 kts | 214° |
| 2026-04-18 13:37 | -46.34752 | -67.91677 | 36001 ft | 451 kts | 214° |
| 2026-04-18 13:37 | -46.39983 | -67.96713 | 36000 ft | 451 kts | 214° |
| 2026-04-18 13:38 | -46.45205 | -68.01752 | 35999 ft | 451 kts | 214° |
| 2026-04-18 13:38 | -46.50426 | -68.06802 | 36003 ft | 451 kts | 214° |
| 2026-04-18 13:39 | -46.55627 | -68.11844 | 36004 ft | 452 kts | 214° |
| 2026-04-18 13:39 | -46.60858 | -68.16929 | 36002 ft | 452 kts | 214° |
| 2026-04-18 13:40 | -46.66048 | -68.21984 | 36003 ft | 452 kts | 214° |
| 2026-04-18 13:40 | -46.71280 | -68.27093 | 36002 ft | 452 kts | 214° |
| 2026-04-18 13:41 | -46.76461 | -68.32164 | 36002 ft | 452 kts | 214° |
| 2026-04-18 13:41 | -46.81681 | -68.37285 | 36003 ft | 452 kts | 214° |
| 2026-04-18 13:42 | -46.86884 | -68.42402 | 35999 ft | 452 kts | 214° |
| 2026-04-18 13:42 | -46.92101 | -68.47544 | 35999 ft | 452 kts | 214° |
| 2026-04-18 13:43 | -46.97304 | -68.52685 | 36000 ft | 451 kts | 214° |
| 2026-04-18 13:43 | -47.02504 | -68.57835 | 36002 ft | 451 kts | 214° |
| 2026-04-18 13:44 | -47.07668 | -68.62963 | 35999 ft | 451 kts | 214° |
| 2026-04-18 13:44 | -47.12865 | -68.68134 | 35998 ft | 452 kts | 214° |
| 2026-04-18 13:45 | -47.18064 | -68.73321 | 36008 ft | 452 kts | 214° |
| 2026-04-18 13:45 | -47.23263 | -68.78520 | 35997 ft | 452 kts | 214° |
| 2026-04-18 13:46 | -47.28466 | -68.83736 | 35997 ft | 453 kts | 214° |
| 2026-04-18 13:46 | -47.33685 | -68.88980 | 36007 ft | 454 kts | 214° |
| 2026-04-18 13:47 | -47.38904 | -68.94237 | 36001 ft | 455 kts | 214° |
| 2026-04-18 13:47 | -47.44133 | -68.99517 | 35999 ft | 456 kts | 214° |
| 2026-04-18 13:48 | -47.49377 | -69.04826 | 36002 ft | 457 kts | 214° |
| 2026-04-18 13:48 | -47.54623 | -69.10149 | 36005 ft | 457 kts | 214° |
| 2026-04-18 13:49 | -47.59867 | -69.15483 | 35996 ft | 457 kts | 214° |
| 2026-04-18 13:49 | -47.65115 | -69.20836 | 35997 ft | 457 kts | 214° |
| 2026-04-18 13:50 | -47.70330 | -69.26166 | 35998 ft | 456 kts | 215° |
| 2026-04-18 13:50 | -47.75549 | -69.31516 | 36001 ft | 456 kts | 215° |
| 2026-04-18 13:51 | -47.80760 | -69.36870 | 35999 ft | 455 kts | 215° |
| 2026-04-18 13:51 | -47.85958 | -69.42224 | 35999 ft | 454 kts | 215° |
| 2026-04-18 13:52 | -47.91157 | -69.47592 | 35997 ft | 454 kts | 215° |
| 2026-04-18 13:52 | -47.96340 | -69.52956 | 36002 ft | 454 kts | 215° |
| 2026-04-18 13:53 | -48.01517 | -69.58328 | 36002 ft | 454 kts | 215° |
| 2026-04-18 13:53 | -48.06694 | -69.63714 | 36000 ft | 454 kts | 215° |
| 2026-04-18 13:54 | -48.11810 | -69.69049 | 36003 ft | 454 kts | 215° |
| 2026-04-18 13:54 | -48.17023 | -69.74500 | 35980 ft | 455 kts | 215° |
| 2026-04-18 13:55 | -48.19602 | -69.77202 | 35463 ft | 460 kts | 215° |
| 2026-04-18 13:55 | -48.22216 | -69.79943 | 34868 ft | 457 kts | 215° |
| 2026-04-18 13:55 | -48.24808 | -69.82664 | 34294 ft | 454 kts | 215° |
| 2026-04-18 13:55 | -48.27381 | -69.85370 | 33880 ft | 448 kts | 215° |
| 2026-04-18 13:56 | -48.29915 | -69.88038 | 33441 ft | 443 kts | 215° |
| 2026-04-18 13:56 | -48.32426 | -69.90685 | 33011 ft | 438 kts | 215° |
| 2026-04-18 13:56 | -48.34899 | -69.93296 | 32586 ft | 433 kts | 215° |
| 2026-04-18 13:56 | -48.37353 | -69.95889 | 32164 ft | 428 kts | 215° |
| 2026-04-18 13:57 | -48.39778 | -69.98455 | 31741 ft | 424 kts | 215° |
| 2026-04-18 13:57 | -48.42182 | -70.01000 | 31329 ft | 420 kts | 215° |
| 2026-04-18 13:57 | -48.44553 | -70.03513 | 30918 ft | 416 kts | 215° |
| 2026-04-18 13:57 | -48.46914 | -70.06005 | 30506 ft | 412 kts | 215° |
| 2026-04-18 13:58 | -48.49236 | -70.08439 | 30100 ft | 408 kts | 215° |
| 2026-04-18 13:58 | -48.51562 | -70.10873 | 29701 ft | 405 kts | 215° |
| 2026-04-18 13:58 | -48.53866 | -70.13285 | 29292 ft | 400 kts | 215° |
| 2026-04-18 13:58 | -48.56137 | -70.15669 | 28883 ft | 397 kts | 215° |
| 2026-04-18 13:59 | -48.58307 | -70.17950 | 28486 ft | 393 kts | 215° |
| 2026-04-18 13:59 | -48.60535 | -70.20298 | 28090 ft | 390 kts | 215° |
| 2026-04-18 13:59 | -48.62007 | -70.21850 | 27823 ft | 387 kts | 215° |
| 2026-04-18 13:59 | -48.64938 | -70.24945 | 27290 ft | 383 kts | 215° |
| 2026-04-18 14:00 | -48.66371 | -70.26460 | 27031 ft | 380 kts | 215° |
| 2026-04-18 14:00 | -48.68543 | -70.28758 | 26637 ft | 377 kts | 215° |
| 2026-04-18 14:00 | -48.70681 | -70.31023 | 26249 ft | 375 kts | 215° |
| 2026-04-18 14:00 | -48.72813 | -70.33284 | 25862 ft | 373 kts | 215° |
| 2026-04-18 14:01 | -48.74931 | -70.35531 | 25478 ft | 373 kts | 215° |
| 2026-04-18 14:01 | -48.77075 | -70.37809 | 25100 ft | 382 kts | 215° |
| 2026-04-18 14:01 | -48.79269 | -70.40143 | 24695 ft | 385 kts | 215° |
| 2026-04-18 14:01 | -48.81449 | -70.42463 | 24284 ft | 382 kts | 215° |
| 2026-04-18 14:02 | -48.83613 | -70.44768 | 23883 ft | 378 kts | 215° |
| 2026-04-18 14:02 | -48.85753 | -70.47050 | 23491 ft | 374 kts | 215° |
| 2026-04-18 14:02 | -48.87864 | -70.49304 | 23102 ft | 370 kts | 215° |
| 2026-04-18 14:02 | -48.89959 | -70.51543 | 22716 ft | 366 kts | 215° |
| 2026-04-18 14:03 | -48.92004 | -70.53731 | 22339 ft | 363 kts | 215° |
| 2026-04-18 14:03 | -48.94057 | -70.55931 | 21960 ft | 359 kts | 215° |
| 2026-04-18 14:03 | -48.96090 | -70.58111 | 21586 ft | 356 kts | 215° |
| 2026-04-18 14:03 | -48.98103 | -70.60272 | 21216 ft | 353 kts | 215° |
| 2026-04-18 14:04 | -49.00097 | -70.62415 | 20846 ft | 350 kts | 216° |
| 2026-04-18 14:04 | -49.02050 | -70.64515 | 20484 ft | 347 kts | 216° |
| 2026-04-18 14:04 | -49.04010 | -70.66626 | 20116 ft | 344 kts | 216° |
| 2026-04-18 14:04 | -49.05953 | -70.68720 | 19746 ft | 341 kts | 216° |
| 2026-04-18 14:05 | -49.07884 | -70.70803 | 19398 ft | 338 kts | 216° |
| 2026-04-18 14:05 | -49.09821 | -70.72895 | 19039 ft | 335 kts | 216° |
| 2026-04-18 14:05 | -49.11690 | -70.74915 | 18681 ft | 333 kts | 216° |
| 2026-04-18 14:05 | -49.13574 | -70.76953 | 18337 ft | 331 kts | 216° |
| 2026-04-18 14:06 | -49.15352 | -70.78878 | 18011 ft | 331 kts | 216° |
| 2026-04-18 14:06 | -49.17233 | -70.80917 | 17656 ft | 332 kts | 216° |
| 2026-04-18 14:06 | -49.19135 | -70.82980 | 17312 ft | 339 kts | 216° |
| 2026-04-18 14:06 | -49.21073 | -70.85084 | 16944 ft | 342 kts | 216° |
| 2026-04-18 14:07 | -49.22957 | -70.87133 | 16579 ft | 340 kts | 216° |
| 2026-04-18 14:07 | -49.24874 | -70.89219 | 16215 ft | 336 kts | 216° |
| 2026-04-18 14:07 | -49.26765 | -70.91279 | 15856 ft | 332 kts | 216° |
| 2026-04-18 14:07 | -49.28641 | -70.93324 | 15502 ft | 329 kts | 216° |
| 2026-04-18 14:08 | -49.32328 | -70.97350 | 14804 ft | 323 kts | 216° |
| 2026-04-18 14:08 | -49.34147 | -70.99338 | 14462 ft | 319 kts | 216° |
| 2026-04-18 14:08 | -49.35948 | -71.01309 | 14118 ft | 317 kts | 216° |
| 2026-04-18 14:09 | -49.37732 | -71.03264 | 13781 ft | 314 kts | 216° |
| 2026-04-18 14:09 | -49.39498 | -71.05201 | 13444 ft | 311 kts | 216° |
| 2026-04-18 14:09 | -49.41254 | -71.07128 | 13112 ft | 308 kts | 216° |
| 2026-04-18 14:09 | -49.42992 | -71.09037 | 12759 ft | 306 kts | 216° |
| 2026-04-18 14:10 | -49.44715 | -71.10931 | 12451 ft | 304 kts | 216° |
| 2026-04-18 14:10 | -49.46426 | -71.12815 | 12124 ft | 301 kts | 216° |
| 2026-04-18 14:10 | -49.48124 | -71.14685 | 11800 ft | 299 kts | 216° |
| 2026-04-18 14:10 | -49.49807 | -71.16541 | 11489 ft | 298 kts | 216° |
| 2026-04-18 14:11 | -49.51498 | -71.18406 | 11162 ft | 301 kts | 216° |
| 2026-04-18 14:11 | -49.53211 | -71.20299 | 10832 ft | 305 kts | 216° |
| 2026-04-18 14:11 | -49.54946 | -71.22217 | 10508 ft | 309 kts | 216° |
| 2026-04-18 14:11 | -49.56677 | -71.24131 | 10365 ft | 302 kts | 216° |
| 2026-04-18 14:12 | -49.58289 | -71.25915 | 10222 ft | 293 kts | 216° |
| 2026-04-18 14:12 | -49.59916 | -71.27718 | 10091 ft | 284 kts | 216° |
| 2026-04-18 14:12 | -49.61499 | -71.29460 | 9956 ft | 276 kts | 214° |
| 2026-04-18 14:12 | -49.63111 | -71.31027 | 9777 ft | 273 kts | 210° |
| 2026-04-18 14:13 | -49.64771 | -71.32440 | 9599 ft | 273 kts | 208° |
| 2026-04-18 14:13 | -49.66452 | -71.33817 | 9441 ft | 275 kts | 208° |
| 2026-04-18 14:13 | -49.68146 | -71.35203 | 9256 ft | 277 kts | 208° |
| 2026-04-18 14:13 | -49.69841 | -71.36600 | 9076 ft | 276 kts | 208° |
| 2026-04-18 14:14 | -49.71529 | -71.38003 | 8886 ft | 275 kts | 208° |
| 2026-04-18 14:14 | -49.73209 | -71.39410 | 8709 ft | 274 kts | 209° |
| 2026-04-18 14:14 | -49.74864 | -71.40802 | 8528 ft | 274 kts | 209° |
| 2026-04-18 14:14 | -49.76532 | -71.42212 | 8348 ft | 273 kts | 209° |
| 2026-04-18 14:15 | -49.78196 | -71.43622 | 8169 ft | 272 kts | 209° |
| 2026-04-18 14:15 | -49.79853 | -71.45029 | 7989 ft | 271 kts | 209° |
| 2026-04-18 14:15 | -49.81503 | -71.46433 | 7809 ft | 271 kts | 209° |
| 2026-04-18 14:15 | -49.83176 | -71.47859 | 7629 ft | 270 kts | 209° |
| 2026-04-18 14:16 | -49.84817 | -71.49259 | 7449 ft | 269 kts | 209° |
| 2026-04-18 14:16 | -49.86456 | -71.50659 | 7279 ft | 269 kts | 209° |
| 2026-04-18 14:16 | -49.88067 | -71.52036 | 7096 ft | 268 kts | 209° |
| 2026-04-18 14:16 | -49.89697 | -71.53431 | 6928 ft | 267 kts | 209° |
| 2026-04-18 14:17 | -49.91325 | -71.54824 | 6737 ft | 267 kts | 209° |
| 2026-04-18 14:17 | -49.92943 | -71.56211 | 6567 ft | 266 kts | 209° |
| 2026-04-18 14:17 | -49.96172 | -71.58982 | 6214 ft | 264 kts | 209° |
| 2026-04-18 14:18 | -49.99383 | -71.61742 | 5871 ft | 263 kts | 209° |
| 2026-04-18 14:18 | -50.00981 | -71.63117 | 5687 ft | 262 kts | 209° |
| 2026-04-18 14:19 | -50.04161 | -71.65856 | 5352 ft | 261 kts | 209° |
| 2026-04-18 14:19 | -50.05747 | -71.67225 | 5184 ft | 260 kts | 209° |
| 2026-04-18 14:19 | -50.08638 | -71.69720 | 4863 ft | 259 kts | 209° |
| 2026-04-18 14:20 | -50.10163 | -71.71038 | 4683 ft | 254 kts | 209° |
| 2026-04-18 14:20 | -50.11699 | -71.72367 | 4520 ft | 251 kts | 209° |
| 2026-04-18 14:20 | -50.13225 | -71.73687 | 4348 ft | 251 kts | 209° |
| 2026-04-18 14:20 | -50.14760 | -71.75017 | 4196 ft | 253 kts | 209° |
| 2026-04-18 14:21 | -50.16269 | -71.76326 | 4001 ft | 242 kts | 209° |
| 2026-04-18 14:21 | -50.17703 | -71.77569 | 3844 ft | 230 kts | 210° |
| 2026-04-18 14:21 | -50.19065 | -71.78751 | 3719 ft | 218 kts | 209° |
| 2026-04-18 14:22 | -50.21596 | -71.80949 | 3461 ft | 203 kts | 210° |
| 2026-04-18 14:22 | -50.22816 | -71.82010 | 3332 ft | 197 kts | 210° |
| 2026-04-18 14:22 | -50.25188 | -71.84075 | 2629 ft | 198 kts | 210° |
| 2026-04-18 14:23 | -50.26343 | -71.85182 | 2364 ft | 192 kts | 221° |
| 2026-04-18 14:23 | -50.27069 | -71.89044 | 1287 ft | 195 kts | 267° |
| 2026-04-18 14:23 | -50.27123 | -71.91104 | 1185 ft | 178 kts | 268° |
| 2026-04-18 14:24 | -50.27179 | -71.94569 | 1059 ft | 149 kts | 270° |
| 2026-04-18 14:24 | -50.27246 | -71.96160 | 793 ft | 155 kts | 261° |
| 2026-04-18 14:24 | -50.27395 | -71.97958 | 1583 ft | 172 kts | 264° |
| 2026-04-18 14:25 | -50.27640 | -71.99960 | 1651 ft | 190 kts | 257° |
| 2026-04-18 14:25 | -50.27834 | -72.01906 | 1114 ft | 194 kts | 266° |
| 2026-04-18 14:25 | -50.27924 | -72.03972 | 671 ft | 172 kts | 261° |
| 2026-04-18 14:25 | -50.28026 | -72.05428 | 641 ft | 89 kts | 264° |
| 2026-04-18 14:26 | -50.28053 | -72.05871 | 641 ft | 26 kts | 264° |
| 2026-04-18 14:26 | -50.28080 | -72.06125 | 641 ft | 22 kts | 247° |
| 2026-04-18 14:26 | -50.28129 | -72.06246 | 641 ft | 5 kts | 234° |
| 2026-04-18 14:26 | -50.28150 | -72.06295 | 641 ft | 6 kts | 235° |
| 2026-04-18 14:27 | -50.28177 | -72.06346 | 640 ft | 6 kts | 231° |
| 2026-04-18 14:27 | -50.28216 | -72.06393 | 642 ft | 10 kts | 199° |
| 2026-04-18 14:27 | -50.28305 | -72.06319 | 641 ft | 22 kts | 100° |
| 2026-04-18 14:27 | -50.28296 | -72.06065 | 640 ft | 22 kts | 85° |
| 2026-04-18 14:28 | -50.28284 | -72.05825 | 642 ft | 22 kts | 85° |
| 2026-04-18 14:28 | -50.28270 | -72.05597 | 640 ft | 19 kts | 85° |
| 2026-04-18 14:28 | -50.28306 | -72.05467 | 641 ft | 7 kts | 156° |
| 2026-04-18 14:28 | -50.28321 | -72.05461 | 642 ft | 0 kts | 166° |